sensor_id;sensor_type;location;lat;lon;timestamp;pressure;altitude;pressure_sealevel;temperature;humidity
16120;BME280;12670;53.502;10.252;2023-07-31T00:02:11;100527.88;;;16.19;100.00
16120;BME280;12670;53.502;10.252;2023-07-31T00:05:13;100526.34;;;16.15;100.00
16120;BME280;12670;53.502;10.252;2023-07-31T00:08:16;100529.16;;;16.26;100.00
16120;BME280;12670;53.502;10.252;2023-07-31T00:11:19;100525.50;;;16.27;100.00
16120;BME280;12670;53.502;10.252;2023-07-31T00:14:21;100521.25;;;16.25;100.00
16120;BME280;12670;53.502;10.252;2023-07-31T00:17:25;100519.09;;;16.30;100.00
16120;BME280;12670;53.502;10.252;2023-07-31T00:20:28;100511.59;;;16.22;100.00
16120;BME280;12670;53.502;10.252;2023-07-31T00:23:31;100510.97;;;16.32;100.00
16120;BME280;12670;53.502;10.252;2023-07-31T00:26:34;100518.22;;;16.30;100.00
16120;BME280;12670;53.502;10.252;2023-07-31T00:29:36;100508.91;;;16.35;100.00
16120;BME280;12670;53.502;10.252;2023-07-31T00:32:40;100511.28;;;16.40;100.00
16120;BME280;12670;53.502;10.252;2023-07-31T00:35:43;100514.38;;;16.34;100.00
16120;BME280;12670;53.502;10.252;2023-07-31T00:38:45;100506.13;;;16.24;100.00
16120;BME280;12670;53.502;10.252;2023-07-31T00:41:48;100502.94;;;16.32;100.00
16120;BME280;12670;53.502;10.252;2023-07-31T00:44:51;100504.22;;;16.39;100.00
16120;BME280;12670;53.502;10.252;2023-07-31T00:47:55;100503.25;;;16.27;100.00
16120;BME280;12670;53.502;10.252;2023-07-31T00:50:58;100501.00;;;16.34;100.00
16120;BME280;12670;53.502;10.252;2023-07-31T00:54:02;100500.78;;;16.37;100.00
16120;BME280;12670;53.502;10.252;2023-07-31T00:57:05;100493.63;;;16.37;100.00
16120;BME280;12670;53.502;10.252;2023-07-31T01:00:10;100492.53;;;16.40;100.00
16120;BME280;12670;53.502;10.252;2023-07-31T01:03:15;100488.56;;;16.33;100.00
16120;BME280;12670;53.502;10.252;2023-07-31T01:06:25;100487.50;;;16.22;100.00
16120;BME280;12670;53.502;10.252;2023-07-31T01:09:37;100489.13;;;16.25;100.00
16120;BME280;12670;53.502;10.252;2023-07-31T01:12:44;100483.97;;;16.35;100.00
16120;BME280;12670;53.502;10.252;2023-07-31T01:15:47;100478.59;;;16.35;100.00
16120;BME280;12670;53.502;10.252;2023-07-31T01:18:51;100469.41;;;16.26;100.00
16120;BME280;12670;53.502;10.252;2023-07-31T01:22:12;100468.31;;;16.29;100.00
16120;BME280;12670;53.502;10.252;2023-07-31T01:25:32;100464.69;;;16.30;100.00
16120;BME280;12670;53.502;10.252;2023-07-31T01:28:49;100465.56;;;16.30;100.00
16120;BME280;12670;53.502;10.252;2023-07-31T01:31:55;100467.72;;;16.25;100.00
16120;BME280;12670;53.502;10.252;2023-07-31T01:34:59;100456.56;;;16.18;100.00
16120;BME280;12670;53.502;10.252;2023-07-31T01:38:02;100457.09;;;16.23;100.00
16120;BME280;12670;53.502;10.252;2023-07-31T01:41:05;100456.56;;;16.18;100.00
16120;BME280;12670;53.502;10.252;2023-07-31T01:44:09;100451.41;;;16.15;100.00
16120;BME280;12670;53.502;10.252;2023-07-31T01:47:12;100449.81;;;16.25;100.00
16120;BME280;12670;53.502;10.252;2023-07-31T01:50:15;100438.69;;;16.32;100.00
16120;BME280;12670;53.502;10.252;2023-07-31T01:53:17;100448.31;;;16.34;100.00
16120;BME280;12670;53.502;10.252;2023-07-31T01:56:20;100443.50;;;16.26;100.00
16120;BME280;12670;53.502;10.252;2023-07-31T01:59:24;100437.28;;;16.39;100.00
16120;BME280;12670;53.502;10.252;2023-07-31T02:02:27;100438.00;;;16.41;100.00
16120;BME280;12670;53.502;10.252;2023-07-31T02:05:29;100425.72;;;16.38;100.00
16120;BME280;12670;53.502;10.252;2023-07-31T02:08:32;100424.00;;;16.37;100.00
16120;BME280;12670;53.502;10.252;2023-07-31T02:11:35;100421.00;;;16.29;100.00
16120;BME280;12670;53.502;10.252;2023-07-31T02:14:39;100419.38;;;16.39;100.00
16120;BME280;12670;53.502;10.252;2023-07-31T02:17:41;100414.69;;;16.43;100.00
16120;BME280;12670;53.502;10.252;2023-07-31T02:20:49;100409.53;;;16.40;100.00
16120;BME280;12670;53.502;10.252;2023-07-31T02:23:52;100410.22;;;16.31;100.00
16120;BME280;12670;53.502;10.252;2023-07-31T02:26:55;100409.97;;;16.34;100.00
16120;BME280;12670;53.502;10.252;2023-07-31T02:29:59;100405.59;;;16.33;100.00
16120;BME280;12670;53.502;10.252;2023-07-31T02:33:01;100404.28;;;16.38;100.00
16120;BME280;12670;53.502;10.252;2023-07-31T02:36:04;100402.59;;;16.24;100.00
16120;BME280;12670;53.502;10.252;2023-07-31T02:39:07;100402.38;;;16.27;100.00
16120;BME280;12670;53.502;10.252;2023-07-31T02:42:10;100400.88;;;16.23;100.00
16120;BME280;12670;53.502;10.252;2023-07-31T02:45:14;100398.53;;;16.32;100.00
16120;BME280;12670;53.502;10.252;2023-07-31T02:48:16;100391.56;;;16.16;100.00
16120;BME280;12670;53.502;10.252;2023-07-31T02:51:19;100394.13;;;16.05;100.00
16120;BME280;12670;53.502;10.252;2023-07-31T02:54:22;100400.69;;;16.14;100.00
16120;BME280;12670;53.502;10.252;2023-07-31T02:57:25;100393.63;;;16.13;100.00
16120;BME280;12670;53.502;10.252;2023-07-31T03:00:29;100399.41;;;16.19;100.00
16120;BME280;12670;53.502;10.252;2023-07-31T03:03:32;100390.16;;;16.23;100.00
16120;BME280;12670;53.502;10.252;2023-07-31T03:06:35;100392.09;;;16.21;100.00
16120;BME280;12670;53.502;10.252;2023-07-31T03:09:38;100393.94;;;16.21;100.00
16120;BME280;12670;53.502;10.252;2023-07-31T03:12:41;100389.97;;;16.26;100.00
16120;BME280;12670;53.502;10.252;2023-07-31T03:15:45;100392.09;;;16.34;100.00
16120;BME280;12670;53.502;10.252;2023-07-31T03:18:47;100378.91;;;16.44;100.00
16120;BME280;12670;53.502;10.252;2023-07-31T03:21:50;100380.41;;;16.35;100.00
16120;BME280;12670;53.502;10.252;2023-07-31T03:24:53;100376.78;;;16.23;100.00
16120;BME280;12670;53.502;10.252;2023-07-31T03:27:56;100370.34;;;16.39;100.00
16120;BME280;12670;53.502;10.252;2023-07-31T03:31:00;100361.56;;;16.24;100.00
16120;BME280;12670;53.502;10.252;2023-07-31T03:34:03;100361.25;;;16.29;100.00
16120;BME280;12670;53.502;10.252;2023-07-31T03:37:05;100356.75;;;16.29;100.00
16120;BME280;12670;53.502;10.252;2023-07-31T03:40:11;100354.19;;;16.27;100.00
16120;BME280;12670;53.502;10.252;2023-07-31T03:43:15;100347.34;;;16.36;100.00
16120;BME280;12670;53.502;10.252;2023-07-31T03:46:19;100360.38;;;16.41;100.00
16120;BME280;12670;53.502;10.252;2023-07-31T03:49:22;100363.91;;;16.41;100.00
16120;BME280;12670;53.502;10.252;2023-07-31T03:52:24;100354.94;;;16.30;100.00
16120;BME280;12670;53.502;10.252;2023-07-31T03:55:27;100363.41;;;16.36;100.00
16120;BME280;12670;53.502;10.252;2023-07-31T03:58:30;100363.19;;;16.26;100.00
16120;BME280;12670;53.502;10.252;2023-07-31T04:01:34;100366.00;;;16.25;100.00
16120;BME280;12670;53.502;10.252;2023-07-31T04:04:36;100364.03;;;16.40;100.00
16120;BME280;12670;53.502;10.252;2023-07-31T04:07:39;100362.94;;;16.55;100.00
16120;BME280;12670;53.502;10.252;2023-07-31T04:10:42;100357.94;;;16.38;100.00
16120;BME280;12670;53.502;10.252;2023-07-31T04:13:44;100354.47;;;16.48;100.00
16120;BME280;12670;53.502;10.252;2023-07-31T04:16:50;100355.69;;;16.32;100.00
16120;BME280;12670;53.502;10.252;2023-07-31T04:19:53;100364.50;;;16.21;100.00
16120;BME280;12670;53.502;10.252;2023-07-31T04:22:56;100365.88;;;16.26;100.00
16120;BME280;12670;53.502;10.252;2023-07-31T04:25:59;100358.97;;;16.48;100.00
16120;BME280;12670;53.502;10.252;2023-07-31T04:29:01;100363.63;;;16.20;100.00
16120;BME280;12670;53.502;10.252;2023-07-31T04:32:06;100363.31;;;16.12;100.00
16120;BME280;12670;53.502;10.252;2023-07-31T04:35:10;100358.91;;;16.24;100.00
16120;BME280;12670;53.502;10.252;2023-07-31T04:38:13;100348.34;;;16.10;100.00
16120;BME280;12670;53.502;10.252;2023-07-31T04:41:15;100340.06;;;16.25;100.00
16120;BME280;12670;53.502;10.252;2023-07-31T04:44:18;100337.59;;;16.22;100.00
16120;BME280;12670;53.502;10.252;2023-07-31T04:47:22;100340.69;;;16.29;100.00
16120;BME280;12670;53.502;10.252;2023-07-31T04:50:25;100339.72;;;16.43;100.00
16120;BME280;12670;53.502;10.252;2023-07-31T04:53:28;100345.00;;;16.19;100.00
16120;BME280;12670;53.502;10.252;2023-07-31T04:56:30;100330.78;;;16.18;100.00
16120;BME280;12670;53.502;10.252;2023-07-31T04:59:33;100324.72;;;16.40;100.00
16120;BME280;12670;53.502;10.252;2023-07-31T05:02:37;100331.16;;;16.38;100.00
16120;BME280;12670;53.502;10.252;2023-07-31T05:05:40;100328.09;;;16.18;100.00
16120;BME280;12670;53.502;10.252;2023-07-31T05:08:43;100325.13;;;16.47;100.00
16120;BME280;12670;53.502;10.252;2023-07-31T05:11:45;100329.69;;;16.21;100.00
16120;BME280;12670;53.502;10.252;2023-07-31T05:14:48;100328.75;;;16.09;100.00
16120;BME280;12670;53.502;10.252;2023-07-31T05:17:52;100323.16;;;16.25;100.00
16120;BME280;12670;53.502;10.252;2023-07-31T05:20:55;100325.84;;;16.12;100.00
16120;BME280;12670;53.502;10.252;2023-07-31T05:23:57;100312.66;;;16.22;100.00
16120;BME280;12670;53.502;10.252;2023-07-31T05:27:00;100325.03;;;16.36;100.00
16120;BME280;12670;53.502;10.252;2023-07-31T05:30:03;100326.94;;;16.46;100.00
16120;BME280;12670;53.502;10.252;2023-07-31T05:33:07;100334.66;;;16.51;100.00
16120;BME280;12670;53.502;10.252;2023-07-31T05:36:13;100325.72;;;16.26;100.00
16120;BME280;12670;53.502;10.252;2023-07-31T05:39:16;100331.88;;;16.40;100.00
16120;BME280;12670;53.502;10.252;2023-07-31T05:42:20;100322.44;;;16.47;100.00
16120;BME280;12670;53.502;10.252;2023-07-31T05:45:25;100311.97;;;16.44;100.00
16120;BME280;12670;53.502;10.252;2023-07-31T05:48:29;100327.22;;;16.18;100.00
16120;BME280;12670;53.502;10.252;2023-07-31T05:51:32;100323.13;;;16.38;100.00
16120;BME280;12670;53.502;10.252;2023-07-31T05:54:34;100319.53;;;16.26;100.00
16120;BME280;12670;53.502;10.252;2023-07-31T05:57:37;100327.44;;;16.27;100.00
16120;BME280;12670;53.502;10.252;2023-07-31T06:00:39;100321.88;;;16.31;100.00
16120;BME280;12670;53.502;10.252;2023-07-31T06:03:44;100309.41;;;16.30;100.00
16120;BME280;12670;53.502;10.252;2023-07-31T06:06:47;100317.00;;;16.36;100.00
16120;BME280;12670;53.502;10.252;2023-07-31T06:09:50;100301.31;;;16.31;100.00
16120;BME280;12670;53.502;10.252;2023-07-31T06:12:52;100299.06;;;16.25;100.00
16120;BME280;12670;53.502;10.252;2023-07-31T06:15:55;100315.66;;;16.17;100.00
16120;BME280;12670;53.502;10.252;2023-07-31T06:18:59;100298.09;;;16.26;100.00
16120;BME280;12670;53.502;10.252;2023-07-31T06:22:02;100292.06;;;16.35;100.00
16120;BME280;12670;53.502;10.252;2023-07-31T06:25:05;100296.84;;;16.19;100.00
16120;BME280;12670;53.502;10.252;2023-07-31T06:28:08;100298.44;;;16.21;100.00
16120;BME280;12670;53.502;10.252;2023-07-31T06:31:11;100304.63;;;16.22;100.00
16120;BME280;12670;53.502;10.252;2023-07-31T06:34:15;100305.00;;;16.41;100.00
16120;BME280;12670;53.502;10.252;2023-07-31T06:37:17;100296.88;;;16.43;100.00
16120;BME280;12670;53.502;10.252;2023-07-31T06:40:20;100303.38;;;16.51;100.00
16120;BME280;12670;53.502;10.252;2023-07-31T06:43:24;100296.25;;;16.63;100.00
16120;BME280;12670;53.502;10.252;2023-07-31T06:46:30;100305.06;;;16.65;100.00
16120;BME280;12670;53.502;10.252;2023-07-31T06:49:34;100293.25;;;16.68;100.00
16120;BME280;12670;53.502;10.252;2023-07-31T06:52:36;100302.47;;;16.64;100.00
16120;BME280;12670;53.502;10.252;2023-07-31T06:55:39;100292.91;;;16.48;100.00
16120;BME280;12670;53.502;10.252;2023-07-31T06:58:42;100295.97;;;16.55;100.00
16120;BME280;12670;53.502;10.252;2023-07-31T07:01:44;100290.91;;;16.63;100.00
16120;BME280;12670;53.502;10.252;2023-07-31T07:04:49;100293.72;;;16.86;100.00
16120;BME280;12670;53.502;10.252;2023-07-31T07:07:52;100295.44;;;16.87;100.00
16120;BME280;12670;53.502;10.252;2023-07-31T07:10:55;100287.25;;;16.88;100.00
16120;BME280;12670;53.502;10.252;2023-07-31T07:13:57;100291.91;;;16.86;100.00
16120;BME280;12670;53.502;10.252;2023-07-31T07:17:00;100298.09;;;16.87;100.00
16120;BME280;12670;53.502;10.252;2023-07-31T07:20:06;100295.78;;;16.69;100.00
16120;BME280;12670;53.502;10.252;2023-07-31T07:23:09;100302.59;;;16.86;100.00
16120;BME280;12670;53.502;10.252;2023-07-31T07:26:13;100306.38;;;16.84;100.00
16120;BME280;12670;53.502;10.252;2023-07-31T07:29:16;100305.81;;;16.91;100.00
16120;BME280;12670;53.502;10.252;2023-07-31T07:32:19;100301.56;;;17.00;100.00
16120;BME280;12670;53.502;10.252;2023-07-31T07:35:23;100293.06;;;17.06;100.00
16120;BME280;12670;53.502;10.252;2023-07-31T07:38:25;100298.66;;;17.03;100.00
16120;BME280;12670;53.502;10.252;2023-07-31T07:41:28;100297.00;;;17.13;100.00
16120;BME280;12670;53.502;10.252;2023-07-31T07:44:31;100298.88;;;16.89;100.00
16120;BME280;12670;53.502;10.252;2023-07-31T07:47:33;100299.91;;;17.10;100.00
16120;BME280;12670;53.502;10.252;2023-07-31T07:50:39;100289.06;;;17.12;100.00
16120;BME280;12670;53.502;10.252;2023-07-31T07:53:42;100277.69;;;16.97;100.00
16120;BME280;12670;53.502;10.252;2023-07-31T07:56:44;100281.19;;;17.21;100.00
16120;BME280;12670;53.502;10.252;2023-07-31T07:59:47;100283.66;;;17.36;100.00
16120;BME280;12670;53.502;10.252;2023-07-31T08:02:50;100281.38;;;17.42;100.00
16120;BME280;12670;53.502;10.252;2023-07-31T08:05:57;100279.47;;;17.20;100.00
16120;BME280;12670;53.502;10.252;2023-07-31T08:09:00;100271.50;;;17.43;100.00
16120;BME280;12670;53.502;10.252;2023-07-31T08:12:07;100269.91;;;17.51;100.00
16120;BME280;12670;53.502;10.252;2023-07-31T08:15:10;100268.78;;;17.31;100.00
16120;BME280;12670;53.502;10.252;2023-07-31T08:18:12;100259.81;;;17.55;100.00
16120;BME280;12670;53.502;10.252;2023-07-31T08:21:17;100252.97;;;17.62;100.00
16120;BME280;12670;53.502;10.252;2023-07-31T08:24:19;100255.41;;;17.54;100.00
16120;BME280;12670;53.502;10.252;2023-07-31T08:27:22;100249.31;;;17.63;100.00
16120;BME280;12670;53.502;10.252;2023-07-31T08:30:25;100251.50;;;17.58;100.00
16120;BME280;12670;53.502;10.252;2023-07-31T08:33:27;100234.81;;;17.54;100.00
16120;BME280;12670;53.502;10.252;2023-07-31T08:36:31;100234.72;;;17.78;100.00
16120;BME280;12670;53.502;10.252;2023-07-31T08:39:34;100231.19;;;17.78;100.00
16120;BME280;12670;53.502;10.252;2023-07-31T08:42:44;100229.00;;;17.72;100.00
16120;BME280;12670;53.502;10.252;2023-07-31T08:45:49;100232.75;;;17.80;100.00
16120;BME280;12670;53.502;10.252;2023-07-31T08:48:52;100227.03;;;17.85;100.00
16120;BME280;12670;53.502;10.252;2023-07-31T08:51:58;100219.84;;;17.74;100.00
16120;BME280;12670;53.502;10.252;2023-07-31T08:55:00;100224.34;;;17.85;100.00
16120;BME280;12670;53.502;10.252;2023-07-31T08:58:04;100230.34;;;17.77;100.00
16120;BME280;12670;53.502;10.252;2023-07-31T09:01:07;100224.22;;;17.87;100.00
16120;BME280;12670;53.502;10.252;2023-07-31T09:04:12;100222.50;;;18.08;100.00
16120;BME280;12670;53.502;10.252;2023-07-31T09:07:17;100219.53;;;18.22;100.00
16120;BME280;12670;53.502;10.252;2023-07-31T09:10:21;100222.72;;;18.05;100.00
16120;BME280;12670;53.502;10.252;2023-07-31T09:13:23;100221.72;;;18.17;100.00
16120;BME280;12670;53.502;10.252;2023-07-31T09:16:27;100210.66;;;17.99;100.00
16120;BME280;12670;53.502;10.252;2023-07-31T09:19:34;100206.03;;;18.01;100.00
16120;BME280;12670;53.502;10.252;2023-07-31T09:22:40;100214.69;;;17.94;100.00
16120;BME280;12670;53.502;10.252;2023-07-31T09:25:43;100203.06;;;18.16;100.00
16120;BME280;12670;53.502;10.252;2023-07-31T09:28:46;100198.34;;;18.08;100.00
16120;BME280;12670;53.502;10.252;2023-07-31T09:31:50;100190.97;;;18.21;100.00
16120;BME280;12670;53.502;10.252;2023-07-31T09:34:53;100189.66;;;18.16;100.00
16120;BME280;12670;53.502;10.252;2023-07-31T09:38:00;100194.28;;;18.25;100.00
16120;BME280;12670;53.502;10.252;2023-07-31T09:41:03;100193.50;;;18.34;100.00
16120;BME280;12670;53.502;10.252;2023-07-31T09:44:09;100176.66;;;18.32;100.00
16120;BME280;12670;53.502;10.252;2023-07-31T09:47:21;100180.69;;;18.37;100.00
16120;BME280;12670;53.502;10.252;2023-07-31T09:50:27;100175.31;;;18.37;100.00
16120;BME280;12670;53.502;10.252;2023-07-31T09:53:31;100170.91;;;18.36;100.00
16120;BME280;12670;53.502;10.252;2023-07-31T09:56:33;100158.41;;;18.47;100.00
16120;BME280;12670;53.502;10.252;2023-07-31T09:59:38;100162.53;;;18.51;100.00
16120;BME280;12670;53.502;10.252;2023-07-31T10:02:41;100159.69;;;18.31;100.00
16120;BME280;12670;53.502;10.252;2023-07-31T10:05:50;100148.25;;;18.50;100.00
16120;BME280;12670;53.502;10.252;2023-07-31T10:08:56;100155.28;;;18.62;100.00
16120;BME280;12670;53.502;10.252;2023-07-31T10:12:00;100146.38;;;18.62;100.00
16120;BME280;12670;53.502;10.252;2023-07-31T10:15:06;100155.28;;;18.62;100.00
16120;BME280;12670;53.502;10.252;2023-07-31T10:18:10;100149.91;;;18.42;100.00
16120;BME280;12670;53.502;10.252;2023-07-31T10:21:13;100146.34;;;18.09;100.00
16120;BME280;12670;53.502;10.252;2023-07-31T10:24:18;100145.66;;;17.96;100.00
16120;BME280;12670;53.502;10.252;2023-07-31T10:27:21;100144.22;;;17.80;100.00
16120;BME280;12670;53.502;10.252;2023-07-31T10:30:27;100141.78;;;17.89;100.00
16120;BME280;12670;53.502;10.252;2023-07-31T10:33:31;100148.06;;;17.99;100.00
16120;BME280;12670;53.502;10.252;2023-07-31T10:36:33;100136.16;;;17.92;100.00
16120;BME280;12670;53.502;10.252;2023-07-31T10:39:37;100146.41;;;17.87;100.00
16120;BME280;12670;53.502;10.252;2023-07-31T10:42:46;100140.03;;;17.99;100.00
16120;BME280;12670;53.502;10.252;2023-07-31T10:45:50;100141.06;;;17.75;100.00
16120;BME280;12670;53.502;10.252;2023-07-31T10:48:57;100143.97;;;17.95;100.00
16120;BME280;12670;53.502;10.252;2023-07-31T10:52:03;100137.63;;;17.84;100.00
16120;BME280;12670;53.502;10.252;2023-07-31T10:55:32;100137.50;;;17.86;100.00
16120;BME280;12670;53.502;10.252;2023-07-31T10:58:36;100130.59;;;17.72;100.00
16120;BME280;12670;53.502;10.252;2023-07-31T11:01:52;100141.00;;;17.98;100.00
16120;BME280;12670;53.502;10.252;2023-07-31T11:05:07;100136.41;;;17.89;100.00
16120;BME280;12670;53.502;10.252;2023-07-31T11:08:12;100133.56;;;18.01;100.00
16120;BME280;12670;53.502;10.252;2023-07-31T11:11:18;100136.47;;;18.09;100.00
16120;BME280;12670;53.502;10.252;2023-07-31T11:14:21;100130.97;;;18.11;100.00
16120;BME280;12670;53.502;10.252;2023-07-31T11:17:25;100133.44;;;18.03;100.00
16120;BME280;12670;53.502;10.252;2023-07-31T11:20:29;100128.84;;;18.26;100.00
16120;BME280;12670;53.502;10.252;2023-07-31T11:23:32;100118.47;;;18.21;100.00
16120;BME280;12670;53.502;10.252;2023-07-31T11:26:36;100120.72;;;18.05;100.00
16120;BME280;12670;53.502;10.252;2023-07-31T11:29:39;100122.03;;;18.22;100.00
16120;BME280;12670;53.502;10.252;2023-07-31T11:32:42;100121.41;;;18.29;100.00
16120;BME280;12670;53.502;10.252;2023-07-31T11:35:46;100113.91;;;18.12;100.00
16120;BME280;12670;53.502;10.252;2023-07-31T11:38:49;100121.69;;;18.15;100.00
16120;BME280;12670;53.502;10.252;2023-07-31T11:41:58;100114.63;;;18.14;100.00
16120;BME280;12670;53.502;10.252;2023-07-31T11:45:02;100104.59;;;18.16;100.00
16120;BME280;12670;53.502;10.252;2023-07-31T11:48:05;100104.69;;;18.26;100.00
16120;BME280;12670;53.502;10.252;2023-07-31T11:51:10;100112.31;;;18.09;100.00
16120;BME280;12670;53.502;10.252;2023-07-31T11:54:14;100107.22;;;18.27;100.00
16120;BME280;12670;53.502;10.252;2023-07-31T11:57:19;100099.97;;;18.18;100.00
16120;BME280;12670;53.502;10.252;2023-07-31T12:00:23;100098.53;;;18.35;100.00
16120;BME280;12670;53.502;10.252;2023-07-31T12:03:26;100095.53;;;18.17;100.00
16120;BME280;12670;53.502;10.252;2023-07-31T12:06:33;100095.34;;;18.09;100.00
16120;BME280;12670;53.502;10.252;2023-07-31T12:09:36;100103.25;;;18.10;100.00
16120;BME280;12670;53.502;10.252;2023-07-31T12:12:40;100097.16;;;18.20;100.00
16120;BME280;12670;53.502;10.252;2023-07-31T12:15:44;100107.38;;;18.26;100.00
16120;BME280;12670;53.502;10.252;2023-07-31T12:18:49;100101.16;;;18.25;100.00
16120;BME280;12670;53.502;10.252;2023-07-31T12:21:52;100100.81;;;18.19;100.00
16120;BME280;12670;53.502;10.252;2023-07-31T12:24:54;100095.69;;;18.16;100.00
16120;BME280;12670;53.502;10.252;2023-07-31T12:28:04;100088.44;;;18.27;100.00
16120;BME280;12670;53.502;10.252;2023-07-31T12:31:09;100088.56;;;18.26;100.00
16120;BME280;12670;53.502;10.252;2023-07-31T12:34:16;100083.34;;;18.66;100.00
16120;BME280;12670;53.502;10.252;2023-07-31T12:37:20;100078.47;;;18.71;100.00
16120;BME280;12670;53.502;10.252;2023-07-31T12:40:23;100074.81;;;18.61;100.00
16120;BME280;12670;53.502;10.252;2023-07-31T12:43:35;100069.91;;;18.66;100.00
16120;BME280;12670;53.502;10.252;2023-07-31T12:46:37;100061.00;;;18.45;100.00
16120;BME280;12670;53.502;10.252;2023-07-31T12:49:41;100054.84;;;18.54;100.00
16120;BME280;12670;53.502;10.252;2023-07-31T12:52:44;100053.59;;;18.58;100.00
16120;BME280;12670;53.502;10.252;2023-07-31T12:55:46;100048.34;;;18.56;100.00
16120;BME280;12670;53.502;10.252;2023-07-31T12:58:50;100062.19;;;18.52;100.00
16120;BME280;12670;53.502;10.252;2023-07-31T13:01:53;100051.88;;;18.57;100.00
16120;BME280;12670;53.502;10.252;2023-07-31T13:04:56;100045.41;;;18.59;100.00
16120;BME280;12670;53.502;10.252;2023-07-31T13:07:58;100043.66;;;18.49;100.00
16120;BME280;12670;53.502;10.252;2023-07-31T13:11:01;100047.38;;;18.57;100.00
16120;BME280;12670;53.502;10.252;2023-07-31T13:14:05;100047.44;;;18.46;100.00
16120;BME280;12670;53.502;10.252;2023-07-31T13:17:08;100034.41;;;18.62;100.00
16120;BME280;12670;53.502;10.252;2023-07-31T13:20:11;100034.81;;;18.79;100.00
16120;BME280;12670;53.502;10.252;2023-07-31T13:23:14;100024.47;;;18.53;100.00
16120;BME280;12670;53.502;10.252;2023-07-31T13:26:17;100044.19;;;18.43;100.00
16120;BME280;12670;53.502;10.252;2023-07-31T13:29:21;100027.91;;;18.65;100.00
16120;BME280;12670;53.502;10.252;2023-07-31T13:32:24;100032.78;;;18.50;100.00
16120;BME280;12670;53.502;10.252;2023-07-31T13:35:27;100031.22;;;18.48;100.00
16120;BME280;12670;53.502;10.252;2023-07-31T13:38:30;100034.59;;;18.50;100.00
16120;BME280;12670;53.502;10.252;2023-07-31T13:41:32;100026.63;;;18.38;100.00
16120;BME280;12670;53.502;10.252;2023-07-31T13:44:37;100028.25;;;18.51;100.00
16120;BME280;12670;53.502;10.252;2023-07-31T13:47:39;100027.84;;;18.34;100.00
16120;BME280;12670;53.502;10.252;2023-07-31T13:50:42;100020.41;;;18.59;100.00
16120;BME280;12670;53.502;10.252;2023-07-31T13:53:45;100019.66;;;18.57;100.00
16120;BME280;12670;53.502;10.252;2023-07-31T13:56:47;100013.25;;;18.69;100.00
16120;BME280;12670;53.502;10.252;2023-07-31T13:59:52;100011.31;;;18.81;100.00
16120;BME280;12670;53.502;10.252;2023-07-31T14:02:55;100009.38;;;18.83;100.00
16120;BME280;12670;53.502;10.252;2023-07-31T14:05:58;100010.22;;;18.83;100.00
16120;BME280;12670;53.502;10.252;2023-07-31T14:09:01;100007.09;;;18.78;100.00
16120;BME280;12670;53.502;10.252;2023-07-31T14:12:05;99997.03;;;18.80;100.00
16120;BME280;12670;53.502;10.252;2023-07-31T14:15:10;99998.44;;;18.75;100.00
16120;BME280;12670;53.502;10.252;2023-07-31T14:18:13;100002.25;;;18.72;100.00
16120;BME280;12670;53.502;10.252;2023-07-31T14:21:16;99995.34;;;18.79;100.00
16120;BME280;12670;53.502;10.252;2023-07-31T14:24:20;99989.25;;;18.77;100.00
16120;BME280;12670;53.502;10.252;2023-07-31T14:27:23;99985.59;;;18.78;100.00
16120;BME280;12670;53.502;10.252;2023-07-31T14:30:33;99978.28;;;18.90;100.00
16120;BME280;12670;53.502;10.252;2023-07-31T14:33:36;99984.50;;;18.90;100.00
16120;BME280;12670;53.502;10.252;2023-07-31T14:36:39;99983.59;;;18.80;100.00
16120;BME280;12670;53.502;10.252;2023-07-31T14:39:42;99980.00;;;18.70;100.00
16120;BME280;12670;53.502;10.252;2023-07-31T14:42:45;99972.44;;;18.54;100.00
16120;BME280;12670;53.502;10.252;2023-07-31T14:45:49;99974.34;;;18.43;100.00
16120;BME280;12670;53.502;10.252;2023-07-31T14:48:51;99963.06;;;18.49;100.00
16120;BME280;12670;53.502;10.252;2023-07-31T14:51:54;99960.00;;;18.53;100.00
16120;BME280;12670;53.502;10.252;2023-07-31T14:54:57;99960.00;;;18.53;100.00
16120;BME280;12670;53.502;10.252;2023-07-31T14:57:59;99953.53;;;18.65;100.00
16120;BME280;12670;53.502;10.252;2023-07-31T15:01:03;99949.38;;;18.52;100.00
16120;BME280;12670;53.502;10.252;2023-07-31T15:04:06;99951.47;;;18.48;100.00
16120;BME280;12670;53.502;10.252;2023-07-31T15:07:09;99957.97;;;18.46;100.00
16120;BME280;12670;53.502;10.252;2023-07-31T15:10:11;99959.16;;;18.53;100.00
16120;BME280;12670;53.502;10.252;2023-07-31T15:13:14;99955.41;;;18.44;100.00
16120;BME280;12670;53.502;10.252;2023-07-31T15:16:18;99965.94;;;18.57;100.00
16120;BME280;12670;53.502;10.252;2023-07-31T15:19:21;99964.25;;;18.35;100.00
16120;BME280;12670;53.502;10.252;2023-07-31T15:22:25;99974.06;;;18.46;100.00
16120;BME280;12670;53.502;10.252;2023-07-31T15:25:28;99971.38;;;18.46;100.00
16120;BME280;12670;53.502;10.252;2023-07-31T15:28:31;99975.50;;;18.50;100.00
16120;BME280;12670;53.502;10.252;2023-07-31T15:31:38;99966.44;;;18.41;100.00
16120;BME280;12670;53.502;10.252;2023-07-31T15:34:41;99967.81;;;18.35;100.00
16120;BME280;12670;53.502;10.252;2023-07-31T15:37:43;99971.22;;;18.37;100.00